Time;durP1;ratioP1;P1;durP2;ratioP2;P2;SDS_P1;SDS_P2;PMS_P1;PMS_P2;Temp;Humidity;BMP_temperature;BMP_pressure;BME280_temperature;BME280_humidity;BME280_pressure;Samples;Min_cycle;Max_cycle;Signal;HPM_P1;HPM_P2
2022/08/31 00:06:01;;;;;;;2.33;1.10;;;;;;;;;;4988588;28;20372;-63
2022/08/31 00:08:27;;;;;;;2.63;1.20;;;;;;;;;;4988697;28;20371;-63
2022/08/31 00:10:54;;;;;;;5.30;1.05;;;;;;;;;;4989323;28;20056;-63
2022/08/31 00:13:21;;;;;;;1.45;0.88;;;;;;;;;;4988551;28;20450;-63
2022/08/31 00:15:46;;;;;;;4.07;1.05;;;;;;;;;;4989209;28;20450;-63
2022/08/31 00:18:12;;;;;;;1.40;0.85;;;;;;;;;;4988865;28;20420;-63
2022/08/31 00:20:37;;;;;;;1.80;1.02;;;;;;;;;;4988399;28;20375;-62
2022/08/31 00:23:09;;;;;;;3.55;1.05;;;;;;;;;;4988398;28;20418;-63
2022/08/31 00:25:35;;;;;;;2.00;1.20;;;;;;;;;;4988316;28;20467;-62
2022/08/31 00:28:02;;;;;;;1.50;1.00;;;;;;;;;;4988088;28;20454;-63
2022/08/31 00:30:28;;;;;;;8.70;1.42;;;;;;;;;;4988936;28;20395;-62
2022/08/31 00:32:53;;;;;;;1.52;0.93;;;;;;;;;;4988178;28;20411;-63
2022/08/31 00:35:19;;;;;;;2.40;1.20;;;;;;;;;;4988665;28;20381;-63
2022/08/31 00:37:44;;;;;;;1.63;1.30;;;;;;;;;;4988201;28;20454;-63
2022/08/31 00:40:10;;;;;;;2.03;1.05;;;;;;;;;;4988927;28;20488;-63
2022/08/31 00:42:36;;;;;;;3.63;0.80;;;;;;;;;;4987987;28;20348;-62
2022/08/31 00:45:02;;;;;;;2.88;1.10;;;;;;;;;;4987820;28;20486;-62
2022/08/31 00:47:27;;;;;;;1.60;1.05;;;;;;;;;;4990046;28;20531;-63
2022/08/31 00:49:52;;;;;;;1.48;0.98;;;;;;;;;;4989163;28;20420;-63
2022/08/31 00:52:24;;;;;;;2.95;1.27;;;;;;;;;;4987879;28;20056;-63
2022/08/31 00:54:57;;;;;;;2.65;1.00;;;;;;;;;;4986407;28;20491;-63
2022/08/31 00:57:32;;;;;;;2.55;0.90;;;;;;;;;;4988037;28;20095;-63
2022/08/31 00:59:59;;;;;;;2.20;1.08;;;;;;;;;;4987823;28;20479;-62
2022/08/31 01:02:25;;;;;;;1.52;0.85;;;;;;;;;;4968536;28;20051;-62
2022/08/31 01:04:51;;;;;;;2.90;1.00;;;;;;;;;;4987437;28;20424;-63
2022/08/31 01:07:16;;;;;;;5.20;1.10;;;;;;;;;;4987862;28;20428;-63
2022/08/31 01:09:42;;;;;;;1.50;0.90;;;;;;;;;;4987696;28;20076;-62
2022/08/31 01:12:08;;;;;;;1.13;0.98;;;;;;;;;;4986338;28;20414;-63
2022/08/31 01:14:36;;;;;;;1.00;0.90;;;;;;;;;;4970028;28;20381;-62
2022/08/31 01:17:01;;;;;;;1.55;1.20;;;;;;;;;;4969806;28;20424;-63
2022/08/31 01:19:37;;;;;;;3.08;0.80;;;;;;;;;;4989284;28;20371;-62
2022/08/31 01:22:08;;;;;;;0.80;0.80;;;;;;;;;;4989743;28;20462;-62
2022/08/31 01:24:33;;;;;;;1.35;0.82;;;;;;;;;;4985983;28;20053;-63
2022/08/31 01:27:03;;;;;;;4.70;0.90;;;;;;;;;;4986201;28;20531;-63
2022/08/31 01:29:30;;;;;;;2.45;1.02;;;;;;;;;;4970311;28;20513;-63
2022/08/31 01:31:55;;;;;;;1.65;1.00;;;;;;;;;;4987334;28;20335;-62
2022/08/31 01:34:21;;;;;;;1.42;1.00;;;;;;;;;;4988552;28;20030;-62
2022/08/31 01:36:46;;;;;;;1.27;0.90;;;;;;;;;;4988172;28;20354;-62
2022/08/31 01:39:13;;;;;;;0.95;0.70;;;;;;;;;;4987607;28;20097;-63
2022/08/31 01:41:42;;;;;;;1.13;1.00;;;;;;;;;;4988318;28;20029;-63
2022/08/31 01:44:09;;;;;;;5.00;0.95;;;;;;;;;;4969892;28;20395;-62
2022/08/31 01:46:34;;;;;;;1.42;0.80;;;;;;;;;;4987153;28;20536;-62
2022/08/31 01:48:59;;;;;;;1.20;1.00;;;;;;;;;;4987357;28;20325;-63
2022/08/31 01:51:25;;;;;;;1.00;0.90;;;;;;;;;;4987148;28;20094;-62
2022/08/31 01:53:51;;;;;;;1.60;1.08;;;;;;;;;;4986770;28;20051;-63
2022/08/31 01:56:39;;;;;;;1.88;0.93;;;;;;;;;;4987672;28;20526;-62
2022/08/31 01:59:06;;;;;;;2.30;1.00;;;;;;;;;;4988519;28;20033;-63
2022/08/31 02:01:34;;;;;;;0.93;0.88;;;;;;;;;;4987044;28;20352;-63
2022/08/31 02:04:04;;;;;;;2.45;0.90;;;;;;;;;;4987390;28;20526;-62
2022/08/31 02:06:31;;;;;;;0.85;0.80;;;;;;;;;;4991721;28;20339;-63
2022/08/31 02:08:57;;;;;;;1.83;0.90;;;;;;;;;;4991066;28;20383;-63
2022/08/31 02:11:22;;;;;;;1.02;0.80;;;;;;;;;;4991362;28;20371;-64
2022/08/31 02:13:47;;;;;;;2.13;0.70;;;;;;;;;;4991418;28;20033;-62
2022/08/31 02:16:13;;;;;;;1.52;1.13;;;;;;;;;;4992070;28;20063;-62
2022/08/31 02:18:38;;;;;;;1.63;0.88;;;;;;;;;;4990619;28;20128;-62
2022/08/31 02:21:04;;;;;;;1.98;0.98;;;;;;;;;;4992176;28;20047;-63
2022/08/31 02:23:29;;;;;;;2.63;1.00;;;;;;;;;;4990732;28;20414;-63
2022/08/31 02:25:55;;;;;;;2.10;1.00;;;;;;;;;;4990440;28;20470;-63
2022/08/31 02:28:21;;;;;;;3.20;1.00;;;;;;;;;;4991952;28;20498;-63
2022/08/31 02:30:47;;;;;;;1.13;0.90;;;;;;;;;;4990443;28;20360;-63
2022/08/31 02:33:13;;;;;;;1.25;1.08;;;;;;;;;;4990339;28;20333;-63
2022/08/31 02:35:38;;;;;;;1.42;0.90;;;;;;;;;;4991125;28;20324;-64
2022/08/31 02:38:05;;;;;;;2.15;1.00;;;;;;;;;;4990708;28;20447;-62
2022/08/31 02:40:31;;;;;;;3.08;0.90;;;;;;;;;;4990321;28;20395;-62
2022/08/31 02:42:56;;;;;;;0.90;0.68;;;;;;;;;;4990254;28;20530;-63
2022/08/31 02:45:23;;;;;;;1.30;1.00;;;;;;;;;;4990530;28;20456;-63
2022/08/31 02:47:48;;;;;;;1.52;0.98;;;;;;;;;;4972138;28;20393;-63
2022/08/31 02:50:13;;;;;;;1.25;0.90;;;;;;;;;;4990893;28;20364;-63
2022/08/31 02:52:39;;;;;;;1.42;0.80;;;;;;;;;;4990356;28;20374;-63
2022/08/31 02:55:05;;;;;;;1.75;0.98;;;;;;;;;;4989417;28;20341;-63
2022/08/31 02:57:30;;;;;;;1.88;1.10;;;;;;;;;;4986934;28;20107;-63
2022/08/31 02:59:55;;;;;;;2.00;1.10;;;;;;;;;;4990428;28;20051;-63
2022/08/31 03:02:22;;;;;;;3.92;0.73;;;;;;;;;;4990314;28;20424;-64
2022/08/31 03:04:48;;;;;;;1.70;1.23;;;;;;;;;;4991786;28;20025;-63
2022/08/31 03:07:13;;;;;;;5.78;1.02;;;;;;;;;;4989697;28;20474;-63
2022/08/31 03:09:38;;;;;;;1.67;0.85;;;;;;;;;;4990431;28;20455;-63
2022/08/31 03:12:04;;;;;;;1.60;0.98;;;;;;;;;;4991194;28;20371;-63
2022/08/31 03:14:29;;;;;;;6.03;1.10;;;;;;;;;;4990087;28;20395;-62
2022/08/31 03:16:55;;;;;;;2.22;0.88;;;;;;;;;;4988916;28;20531;-62
2022/08/31 03:19:20;;;;;;;1.45;0.90;;;;;;;;;;4989537;28;20029;-63
2022/08/31 03:21:45;;;;;;;1.40;1.15;;;;;;;;;;4989875;28;20396;-63
2022/08/31 03:24:13;;;;;;;2.47;0.98;;;;;;;;;;4989547;28;20340;-63
2022/08/31 03:26:39;;;;;;;1.98;0.93;;;;;;;;;;4990828;28;20130;-63
2022/08/31 03:29:04;;;;;;;1.15;0.70;;;;;;;;;;4989347;28;20530;-62
2022/08/31 03:31:30;;;;;;;2.78;0.95;;;;;;;;;;4989331;28;20427;-63
2022/08/31 03:33:56;;;;;;;1.25;1.08;;;;;;;;;;4991344;28;20467;-63
2022/08/31 03:36:22;;;;;;;1.98;1.00;;;;;;;;;;4989335;28;20531;-62
2022/08/31 03:38:47;;;;;;;2.10;1.17;;;;;;;;;;4989666;28;20553;-63
2022/08/31 03:41:15;;;;;;;2.05;0.98;;;;;;;;;;4989686;28;20029;-62
2022/08/31 03:43:40;;;;;;;4.17;1.43;;;;;;;;;;4971166;28;20378;-63
2022/08/31 03:46:06;;;;;;;5.32;0.90;;;;;;;;;;4988851;28;20411;-62
2022/08/31 03:48:31;;;;;;;1.67;0.90;;;;;;;;;;4988984;28;20021;-63
2022/08/31 03:50:57;;;;;;;1.70;1.17;;;;;;;;;;4989156;28;20360;-63
2022/08/31 03:53:22;;;;;;;2.35;1.50;;;;;;;;;;4988992;28;20436;-63
2022/08/31 03:55:47;;;;;;;1.20;0.90;;;;;;;;;;4989073;28;20487;-63
2022/08/31 03:58:13;;;;;;;1.55;1.13;;;;;;;;;;4989808;28;20449;-63
2022/08/31 04:00:38;;;;;;;1.90;1.13;;;;;;;;;;4988821;28;20416;-63
2022/08/31 04:03:04;;;;;;;1.85;1.17;;;;;;;;;;4988555;28;20510;-62
2022/08/31 04:05:32;;;;;;;1.25;0.90;;;;;;;;;;4988650;28;20210;-66
2022/08/31 04:07:58;;;;;;;2.55;1.23;;;;;;;;;;4988706;28;20033;-63
2022/08/31 04:10:23;;;;;;;4.30;1.05;;;;;;;;;;4988721;28;20467;-63
2022/08/31 04:12:49;;;;;;;1.52;1.10;;;;;;;;;;4988619;28;20087;-63
2022/08/31 04:15:15;;;;;;;1.20;1.00;;;;;;;;;;4989136;28;20471;-63
2022/08/31 04:17:40;;;;;;;11.82;1.40;;;;;;;;;;4988547;28;20387;-62
2022/08/31 04:20:06;;;;;;;4.65;1.73;;;;;;;;;;4988300;28;20440;-63
2022/08/31 04:22:31;;;;;;;1.40;1.10;;;;;;;;;;4989367;28;20475;-63
2022/08/31 04:24:57;;;;;;;3.95;1.38;;;;;;;;;;4988464;28;20470;-63
2022/08/31 04:27:22;;;;;;;3.65;1.38;;;;;;;;;;4988515;28;20485;-63
2022/08/31 04:29:47;;;;;;;2.95;1.00;;;;;;;;;;4989310;28;20021;-63
2022/08/31 04:32:13;;;;;;;5.05;1.00;;;;;;;;;;4988157;28;20025;-63
2022/08/31 04:34:38;;;;;;;4.93;1.20;;;;;;;;;;4988250;28;20128;-63
2022/08/31 04:37:03;;;;;;;1.55;1.02;;;;;;;;;;4988129;28;20021;-63
2022/08/31 04:39:29;;;;;;;1.85;1.02;;;;;;;;;;4988242;28;20343;-63
2022/08/31 04:41:54;;;;;;;1.90;0.95;;;;;;;;;;4988011;28;20317;-63
2022/08/31 04:44:20;;;;;;;2.03;1.30;;;;;;;;;;4989297;28;20438;-63
2022/08/31 04:46:45;;;;;;;5.13;1.80;;;;;;;;;;4988788;28;20420;-63
2022/08/31 04:49:13;;;;;;;1.85;1.08;;;;;;;;;;4987771;28;20343;-63
2022/08/31 04:51:38;;;;;;;1.83;1.30;;;;;;;;;;4988836;28;20458;-63
2022/08/31 04:54:07;;;;;;;2.05;1.08;;;;;;;;;;4980578;28;20444;-63
2022/08/31 04:56:34;;;;;;;2.53;1.05;;;;;;;;;;4987850;28;20436;-64
2022/08/31 04:59:02;;;;;;;4.22;0.98;;;;;;;;;;4969786;28;20535;-63
2022/08/31 05:01:33;;;;;;;1.40;1.08;;;;;;;;;;4987617;28;20444;-63
2022/08/31 05:03:59;;;;;;;2.28;1.30;;;;;;;;;;4987643;28;20348;-63
2022/08/31 05:06:28;;;;;;;2.13;1.20;;;;;;;;;;4987435;28;20348;-63
2022/08/31 05:09:05;;;;;;;1.52;1.00;;;;;;;;;;4969818;28;20428;-63
2022/08/31 05:11:31;;;;;;;2.72;1.20;;;;;;;;;;4987562;28;20343;-63
2022/08/31 05:14:00;;;;;;;3.72;1.20;;;;;;;;;;4987880;28;20363;-63
2022/08/31 05:16:29;;;;;;;2.05;1.27;;;;;;;;;;4987816;28;20055;-63
2022/08/31 05:18:54;;;;;;;2.85;1.27;;;;;;;;;;4987656;28;20355;-63
2022/08/31 05:21:29;;;;;;;3.35;1.63;;;;;;;;;;4986101;28;20379;-63
2022/08/31 05:23:56;;;;;;;8.27;1.73;;;;;;;;;;4987474;28;20368;-63
2022/08/31 05:26:25;;;;;;;3.40;1.10;;;;;;;;;;4987373;28;20511;-63
2022/08/31 05:28:51;;;;;;;4.30;1.13;;;;;;;;;;4987630;28;20321;-63
2022/08/31 05:31:17;;;;;;;1.55;1.05;;;;;;;;;;4987159;28;20052;-63
2022/08/31 05:33:43;;;;;;;4.50;1.30;;;;;;;;;;4987167;28;20626;-63
2022/08/31 05:36:09;;;;;;;2.92;1.08;;;;;;;;;;4987748;28;20345;-63
2022/08/31 05:38:35;;;;;;;3.92;1.17;;;;;;;;;;4987404;28;20374;-63
2022/08/31 05:41:01;;;;;;;2.58;1.00;;;;;;;;;;4989294;28;20021;-63
2022/08/31 05:43:27;;;;;;;1.98;0.80;;;;;;;;;;4991451;28;20029;-63
2022/08/31 05:45:53;;;;;;;1.95;0.90;;;;;;;;;;4991262;28;20444;-63
2022/08/31 05:48:19;;;;;;;2.35;1.30;;;;;;;;;;4992548;28;20301;-63
2022/08/31 05:50:44;;;;;;;2.05;0.95;;;;;;;;;;4991055;28;20490;-64
2022/08/31 05:53:10;;;;;;;2.10;1.13;;;;;;;;;;4992566;28;20021;-63
2022/08/31 05:55:35;;;;;;;2.13;1.00;;;;;;;;;;4991833;28;20440;-63
2022/08/31 05:58:00;;;;;;;2.72;0.85;;;;;;;;;;4990791;28;20340;-63
2022/08/31 06:00:26;;;;;;;1.15;0.77;;;;;;;;;;4991184;28;20432;-63
2022/08/31 06:02:52;;;;;;;6.35;1.98;;;;;;;;;;4990766;28;20032;-63
2022/08/31 06:05:18;;;;;;;1.95;0.80;;;;;;;;;;4991329;28;20025;-63
2022/08/31 06:07:45;;;;;;;1.80;0.95;;;;;;;;;;4990976;28;20099;-63
2022/08/31 06:10:13;;;;;;;1.73;0.85;;;;;;;;;;4990568;28;20466;-63
2022/08/31 06:12:41;;;;;;;1.45;0.85;;;;;;;;;;4990995;28;20420;-63
2022/08/31 06:15:08;;;;;;;2.55;1.05;;;;;;;;;;4992948;28;20397;-63
2022/08/31 06:17:34;;;;;;;2.03;1.05;;;;;;;;;;4992626;28;20332;-63
2022/08/31 06:20:00;;;;;;;2.03;0.95;;;;;;;;;;4990664;28;20029;-63
2022/08/31 06:22:25;;;;;;;1.70;0.88;;;;;;;;;;4990654;28;20491;-63
2022/08/31 06:24:51;;;;;;;1.20;1.02;;;;;;;;;;4990547;28;20051;-63
2022/08/31 06:27:17;;;;;;;1.58;1.00;;;;;;;;;;4991672;28;20148;-63
2022/08/31 06:29:43;;;;;;;1.63;1.00;;;;;;;;;;4990610;28;20436;-62
2022/08/31 06:32:09;;;;;;;1.55;1.08;;;;;;;;;;4990427;28;20039;-64
2022/08/31 06:34:36;;;;;;;2.42;1.17;;;;;;;;;;4990457;28;20431;-62
2022/08/31 06:37:02;;;;;;;1.75;0.80;;;;;;;;;;4990795;28;20345;-63
2022/08/31 06:39:28;;;;;;;1.17;0.90;;;;;;;;;;4990364;28;20347;-63
2022/08/31 06:41:54;;;;;;;0.73;0.60;;;;;;;;;;4990587;28;20025;-62
2022/08/31 06:44:21;;;;;;;1.35;0.93;;;;;;;;;;4990346;28;20348;-62
2022/08/31 06:46:46;;;;;;;3.08;1.20;;;;;;;;;;4990467;28;20313;-63
2022/08/31 06:49:12;;;;;;;1.08;0.80;;;;;;;;;;4990346;28;20317;-63
2022/08/31 06:51:37;;;;;;;1.75;0.85;;;;;;;;;;4989144;28;20344;-63
2022/08/31 06:54:08;;;;;;;3.53;0.93;;;;;;;;;;4990351;28;20489;-63
2022/08/31 06:56:34;;;;;;;1.75;0.82;;;;;;;;;;4989957;28;20371;-63
2022/08/31 06:59:00;;;;;;;2.90;0.93;;;;;;;;;;4992228;28;20378;-63
2022/08/31 07:01:27;;;;;;;1.88;0.80;;;;;;;;;;4992230;28;20371;-62
2022/08/31 07:03:54;;;;;;;6.30;1.10;;;;;;;;;;4989885;28;20471;-62
2022/08/31 07:06:22;;;;;;;2.55;1.20;;;;;;;;;;4990238;28;20406;-62
2022/08/31 07:08:53;;;;;;;1.92;0.88;;;;;;;;;;4989897;28;20095;-62
2022/08/31 07:11:34;;;;;;;1.75;0.80;;;;;;;;;;4990442;28;20439;-62
2022/08/31 07:14:00;;;;;;;3.90;1.05;;;;;;;;;;4990442;28;20436;-62
2022/08/31 07:16:27;;;;;;;2.63;1.00;;;;;;;;;;4989785;28;20482;-63
2022/08/31 07:18:53;;;;;;;1.38;0.90;;;;;;;;;;4989881;28;20376;-62
2022/08/31 07:21:24;;;;;;;1.48;0.80;;;;;;;;;;4989763;28;20412;-63
2022/08/31 07:23:49;;;;;;;2.80;0.90;;;;;;;;;;4989425;28;20033;-63
2022/08/31 07:26:27;;;;;;;2.05;1.10;;;;;;;;;;4989713;28;20499;-63
2022/08/31 07:28:54;;;;;;;2.33;0.95;;;;;;;;;;4990734;28;20047;-63
2022/08/31 07:31:21;;;;;;;5.85;1.00;;;;;;;;;;4989499;28;20374;-63
2022/08/31 07:33:52;;;;;;;4.25;0.90;;;;;;;;;;4989535;28;20033;-63
2022/08/31 07:36:17;;;;;;;2.53;1.00;;;;;;;;;;4990415;28;20348;-63
2022/08/31 07:44:12;;;;;;;1.35;0.80;;;;;;;;;;4990375;28;20475;-63
2022/08/31 07:46:38;;;;;;;0.98;0.80;;;;;;;;;;4989241;28;20096;-63
2022/08/31 07:49:07;;;;;;;2.13;1.10;;;;;;;;;;4989175;28;20055;-63
2022/08/31 07:51:33;;;;;;;3.20;1.02;;;;;;;;;;4990133;28;20337;-62
2022/08/31 07:53:59;;;;;;;3.10;1.08;;;;;;;;;;4990011;28;20411;-63
2022/08/31 07:56:25;;;;;;;1.23;0.77;;;;;;;;;;4988913;28;20037;-62
2022/08/31 07:58:50;;;;;;;0.73;0.73;;;;;;;;;;4989186;28;20198;-63
2022/08/31 08:01:17;;;;;;;4.18;1.35;;;;;;;;;;4991071;28;20051;-63
2022/08/31 08:03:43;;;;;;;1.55;0.95;;;;;;;;;;4988624;28;20420;-63
2022/08/31 08:06:14;;;;;;;1.55;1.00;;;;;;;;;;4990049;28;20501;-63
2022/08/31 08:08:41;;;;;;;1.95;1.20;;;;;;;;;;4988822;28;20398;-63
2022/08/31 08:11:11;;;;;;;1.63;1.10;;;;;;;;;;4988680;28;20394;-63
2022/08/31 08:13:36;;;;;;;1.80;0.82;;;;;;;;;;4971268;28;20459;-63
2022/08/31 08:16:02;;;;;;;1.77;0.82;;;;;;;;;;4989813;28;20464;-62
2022/08/31 08:18:28;;;;;;;3.72;1.17;;;;;;;;;;4988530;28;20047;-63
2022/08/31 08:20:53;;;;;;;2.03;0.95;;;;;;;;;;4988380;28;20415;-63
2022/08/31 08:23:19;;;;;;;2.33;1.02;;;;;;;;;;4988507;28;20511;-62
2022/08/31 08:25:45;;;;;;;3.85;1.23;;;;;;;;;;4990004;28;20332;-64
2022/08/31 08:28:19;;;;;;;3.45;0.85;;;;;;;;;;4988588;28;20320;-63
2022/08/31 08:30:53;;;;;;;1.63;0.80;;;;;;;;;;4989072;28;20383;-63
2022/08/31 08:33:18;;;;;;;1.38;0.82;;;;;;;;;;4989406;28;20343;-62
2022/08/31 08:35:44;;;;;;;3.75;0.95;;;;;;;;;;4988460;28;20351;-62
2022/08/31 08:38:09;;;;;;;1.15;0.77;;;;;;;;;;4989252;28;20387;-62
2022/08/31 08:40:41;;;;;;;1.75;0.90;;;;;;;;;;4988215;28;20028;-62
2022/08/31 08:43:15;;;;;;;4.10;1.10;;;;;;;;;;4988341;28;20458;-63
2022/08/31 08:45:41;;;;;;;1.40;0.93;;;;;;;;;;4971319;28;20436;-63
2022/08/31 08:48:10;;;;;;;1.75;0.82;;;;;;;;;;4988182;28;20452;-62
2022/08/31 08:50:37;;;;;;;0.98;0.68;;;;;;;;;;4988111;28;20375;-62
2022/08/31 08:53:04;;;;;;;3.55;0.80;;;;;;;;;;4970007;28;20033;-62
2022/08/31 08:55:35;;;;;;;2.83;0.80;;;;;;;;;;4956272;28;20407;-63
2022/08/31 08:58:04;;;;;;;1.38;0.80;;;;;;;;;;4968411;28;20325;-62
2022/08/31 09:00:32;;;;;;;1.10;0.65;;;;;;;;;;4968130;28;20471;-64
2022/08/31 09:03:29;;;;;;;1.67;0.80;;;;;;;;;;4968858;28;20351;-63
2022/08/31 09:06:08;;;;;;;2.22;0.60;;;;;;;;;;4967468;28;20041;-63
2022/08/31 09:08:53;;;;;;;;;;;;;;;;;;4968242;28;20510;-63
2022/08/31 09:11:45;;;;;;;1.80;0.98;;;;;;;;;;4968069;28;19917;-62
2022/08/31 09:14:38;;;;;;;2.83;0.85;;;;;;;;;;4940247;28;20365;-62
2022/08/31 09:17:23;;;;;;;1.95;0.80;;;;;;;;;;4967879;28;20518;-62
2022/08/31 09:20:04;;;;;;;1.50;0.80;;;;;;;;;;4966589;28;20433;-62
2022/08/31 09:22:33;;;;;;;4.55;0.93;;;;;;;;;;4967716;28;20440;-63
2022/08/31 09:24:58;;;;;;;2.88;0.90;;;;;;;;;;4968896;28;20443;-63
2022/08/31 09:27:49;;;;;;;1.20;1.00;;;;;;;;;;4949811;28;20464;-63
2022/08/31 09:30:32;;;;;;;1.27;0.65;;;;;;;;;;4968711;28;20361;-62
2022/08/31 09:32:58;;;;;;;0.60;0.43;;;;;;;;;;4950041;28;20021;-62
2022/08/31 09:35:42;;;;;;;3.17;0.70;;;;;;;;;;4968488;28;20425;-63
2022/08/31 09:38:15;;;;;;;1.83;0.70;;;;;;;;;;4969218;28;20348;-62
2022/08/31 09:40:47;;;;;;;2.83;0.82;;;;;;;;;;4968065;28;20127;-63
2022/08/31 09:43:33;;;;;;;2.75;0.90;;;;;;;;;;4967569;28;20122;-63
2022/08/31 09:46:27;;;;;;;3.20;0.93;;;;;;;;;;4950156;28;20038;-63
2022/08/31 09:48:57;;;;;;;1.92;0.90;;;;;;;;;;4967380;28;20095;-64
2022/08/31 09:51:23;;;;;;;2.38;0.80;;;;;;;;;;4950028;28;20495;-67
2022/08/31 09:56:51;;;;;;;3.15;0.77;;;;;;;;;;4966989;28;20463;-63
2022/08/31 09:59:29;;;;;;;1.83;0.82;;;;;;;;;;4967937;28;20432;-63
2022/08/31 10:01:58;;;;;;;2.30;1.05;;;;;;;;;;4965795;28;20030;-63
2022/08/31 10:04:27;;;;;;;1.00;0.80;;;;;;;;;;4966493;28;20345;-63
2022/08/31 10:06:54;;;;;;;;;;;;;;;;;;4968478;28;20524;-63
2022/08/31 10:09:29;;;;;;;1.20;0.73;;;;;;;;;;4968339;28;20320;-62
2022/08/31 10:11:58;;;;;;;1.75;0.70;;;;;;;;;;4966820;28;20061;-64
2022/08/31 10:14:33;;;;;;;1.23;0.80;;;;;;;;;;4966267;28;20419;-63
2022/08/31 10:17:03;;;;;;;0.98;0.57;;;;;;;;;;4966285;28;20404;-63
2022/08/31 10:19:45;;;;;;;1.77;0.80;;;;;;;;;;4967547;28;20369;-62
2022/08/31 10:22:24;;;;;;;1.73;0.57;;;;;;;;;;4982664;28;20099;-62
2022/08/31 10:25:21;;;;;;;1.55;0.73;;;;;;;;;;4967395;28;20021;-62
2022/08/31 10:28:07;;;;;;;1.92;0.90;;;;;;;;;;4967840;28;20503;-63
2022/08/31 10:30:57;;;;;;;0.65;0.50;;;;;;;;;;4969424;28;20333;-63
2022/08/31 10:35:01;;;;;;;2.22;0.60;;;;;;;;;;4986295;28;20383;-63
2022/08/31 10:36:14;;;;;;;1.48;0.63;;;;;;;;;;4970979;28;20380;-62
2022/08/31 10:38:42;;;;;;;0.73;0.65;;;;;;;;;;4972331;28;20516;-63
2022/08/31 10:41:10;;;;;;;2.88;0.98;;;;;;;;;;4969632;28;20029;-63
2022/08/31 10:43:52;;;;;;;0.82;0.55;;;;;;;;;;4971020;28;20496;-63
2022/08/31 10:46:18;;;;;;;1.30;0.52;;;;;;;;;;4968906;28;20444;-63
2022/08/31 10:48:49;;;;;;;1.25;0.75;;;;;;;;;;4971706;28;20412;-63
2022/08/31 10:51:27;;;;;;;1.30;0.43;;;;;;;;;;4972750;28;20025;-63
2022/08/31 10:54:27;;;;;;;0.80;0.75;;;;;;;;;;4970628;28;20091;-63
2022/08/31 10:56:59;;;;;;;0.52;0.50;;;;;;;;;;4947563;28;20472;-63
2022/08/31 10:59:34;;;;;;;1.25;0.60;;;;;;;;;;4952995;28;20340;-63
2022/08/31 11:02:47;;;;;;;1.58;0.80;;;;;;;;;;4950186;28;20364;-63
2022/08/31 11:05:28;;;;;;;0.63;0.50;;;;;;;;;;4914796;28;20035;-63
2022/08/31 11:08:14;;;;;;;2.13;0.60;;;;;;;;;;4950014;28;20059;-63
2022/08/31 11:10:42;;;;;;;1.60;0.60;;;;;;;;;;4959749;28;20362;-63
2022/08/31 11:13:34;;;;;;;2.67;0.60;;;;;;;;;;4970065;28;20037;-63
2022/08/31 11:16:31;;;;;;;1.35;0.70;;;;;;;;;;4970160;28;20436;-64
2022/08/31 11:19:16;;;;;;;2.10;0.43;;;;;;;;;;4965488;28;20459;-63
2022/08/31 11:21:57;;;;;;;1.27;0.52;;;;;;;;;;4965566;28;20037;-64
2022/08/31 11:25:02;;;;;;;1.00;0.50;;;;;;;;;;4968086;28;20436;-64
2022/08/31 11:28:06;;;;;;;0.95;0.50;;;;;;;;;;4967499;28;20380;-63
2022/08/31 11:30:33;;;;;;;1.58;0.70;;;;;;;;;;4970137;28;20026;-63
2022/08/31 11:33:01;;;;;;;0.30;0.30;;;;;;;;;;4970233;28;20432;-64
2022/08/31 11:35:46;;;;;;;;;;;;;;;;;;4970471;28;20468;-64
2022/08/31 11:38:55;;;;;;;0.98;0.52;;;;;;;;;;4969128;28;20247;-63
2022/08/31 11:41:30;;;;;;;0.88;0.40;;;;;;;;;;4970004;28;20120;-64
2022/08/31 11:43:56;;;;;;;0.93;0.68;;;;;;;;;;4970004;28;20457;-63
2022/08/31 11:46:24;;;;;;;0.57;0.40;;;;;;;;;;4966790;28;20437;-63
2022/08/31 11:48:53;;;;;;;1.20;0.57;;;;;;;;;;4969577;28;20372;-64
2022/08/31 11:51:37;;;;;;;;;;;;;;;;;;4970729;28;20428;-63
2022/08/31 11:54:10;;;;;;;0.77;0.50;;;;;;;;;;4970550;28;20260;-63
2022/08/31 11:56:42;;;;;;;0.95;0.60;;;;;;;;;;4970927;28;20366;-63
2022/08/31 11:59:27;;;;;;;1.80;0.40;;;;;;;;;;4968133;28;20131;-62
2022/08/31 12:01:55;;;;;;;1.27;0.65;;;;;;;;;;4983247;28;20443;-63
2022/08/31 12:04:40;;;;;;;1.55;0.50;;;;;;;;;;4988795;28;20080;-62
2022/08/31 12:07:12;;;;;;;1.25;0.70;;;;;;;;;;4991080;28;20466;-63
2022/08/31 12:10:13;;;;;;;1.05;0.63;;;;;;;;;;4988863;28;20531;-63
2022/08/31 12:13:17;;;;;;;3.05;0.55;;;;;;;;;;4960624;28;20347;-62
2022/08/31 12:16:03;;;;;;;1.13;0.50;;;;;;;;;;4990274;28;20317;-62
2022/08/31 12:18:48;;;;;;;0.38;0.30;;;;;;;;;;4987784;28;20391;-62
2022/08/31 12:24:14;;;;;;;0.40;0.30;;;;;;;;;;4988667;28;20102;-63
2022/08/31 12:26:46;;;;;;;0.52;0.50;;;;;;;;;;4989218;28;20506;-63
2022/08/31 12:29:27;;;;;;;0.80;0.50;;;;;;;;;;4986705;28;20348;-64
2022/08/31 12:32:20;;;;;;;0.93;0.60;;;;;;;;;;4643169;28;10002358;-63
2022/08/31 12:34:57;;;;;;;1.08;0.47;;;;;;;;;;4970532;28;20451;-63
2022/08/31 12:37:31;;;;;;;0.60;0.30;;;;;;;;;;4986583;28;20464;-61
2022/08/31 12:40:22;;;;;;;0.90;0.55;;;;;;;;;;4988999;28;20131;-61
2022/08/31 12:42:56;;;;;;;0.93;0.28;;;;;;;;;;4988519;28;20435;-64
2022/08/31 12:45:49;;;;;;;1.20;0.50;;;;;;;;;;4989654;28;20196;-63
2022/08/31 12:48:33;;;;;;;0.40;0.38;;;;;;;;;;4988189;28;20455;-61
2022/08/31 12:51:01;;;;;;;0.35;0.22;;;;;;;;;;4986287;28;20412;-61
2022/08/31 12:53:48;;;;;;;0.90;0.40;;;;;;;;;;4990186;28;20498;-61
2022/08/31 12:56:23;;;;;;;0.60;0.38;;;;;;;;;;4986662;28;20407;-61
2022/08/31 12:59:04;;;;;;;1.77;0.47;;;;;;;;;;4987032;28;20450;-61
2022/08/31 13:01:29;;;;;;;1.40;0.40;;;;;;;;;;4988464;28;20179;-63
2022/08/31 13:03:58;;;;;;;0.75;0.32;;;;;;;;;;4988292;28;20432;-63
2022/08/31 13:06:27;;;;;;;0.77;0.50;;;;;;;;;;4987854;28;20321;-63
2022/08/31 13:08:53;;;;;;;1.45;0.57;;;;;;;;;;4987821;28;20029;-63
2022/08/31 13:11:34;;;;;;;0.50;0.35;;;;;;;;;;4989629;28;20415;-63
2022/08/31 13:14:11;;;;;;;1.40;0.50;;;;;;;;;;4987820;28;20025;-63
2022/08/31 13:16:44;;;;;;;0.73;0.45;;;;;;;;;;4987724;28;20098;-63
2022/08/31 13:19:17;;;;;;;1.13;0.45;;;;;;;;;;4970170;28;20478;-63
2022/08/31 13:21:48;;;;;;;1.52;0.32;;;;;;;;;;4969934;28;20320;-63
2022/08/31 13:24:13;;;;;;;0.35;0.22;;;;;;;;;;4988096;28;20348;-63
2022/08/31 13:26:39;;;;;;;0.90;0.45;;;;;;;;;;4988081;28;20357;-63
2022/08/31 13:29:07;;;;;;;0.82;0.40;;;;;;;;;;4969922;28;20340;-63
2022/08/31 13:31:34;;;;;;;0.80;0.37;;;;;;;;;;4988417;28;20108;-62
2022/08/31 13:34:06;;;;;;;0.80;0.27;;;;;;;;;;4987735;28;20591;-63
2022/08/31 13:36:53;;;;;;;2.03;0.60;;;;;;;;;;4988037;28;20617;-63
2022/08/31 13:39:37;;;;;;;0.65;0.40;;;;;;;;;;4987600;28;20426;-63
2022/08/31 13:42:06;;;;;;;2.53;0.68;;;;;;;;;;4970478;28;20436;-63
2022/08/31 13:44:37;;;;;;;1.02;0.40;;;;;;;;;;4988127;28;20456;-62
2022/08/31 13:47:04;;;;;;;0.60;0.40;;;;;;;;;;4987409;28;20505;-63
2022/08/31 13:49:39;;;;;;;1.38;0.88;;;;;;;;;;4969499;28;20526;-63
2022/08/31 13:52:13;;;;;;;1.00;0.52;;;;;;;;;;4988748;28;20421;-62
2022/08/31 13:54:38;;;;;;;0.95;0.45;;;;;;;;;;4986801;28;20502;-66
2022/08/31 13:57:27;;;;;;;0.77;0.60;;;;;;;;;;4987692;28;20456;-63
2022/08/31 13:59:53;;;;;;;1.05;0.32;;;;;;;;;;4987526;28;20412;-62
2022/08/31 14:02:18;;;;;;;0.57;0.50;;;;;;;;;;4990795;28;20477;-62
2022/08/31 14:07:22;;;;;;;2.15;0.60;;;;;;;;;;4992714;28;20054;-63
2022/08/31 14:10:00;;;;;;;1.13;0.60;;;;;;;;;;4992555;28;20379;-62
2022/08/31 14:12:34;;;;;;;1.10;0.40;;;;;;;;;;4990997;28;20428;-63
2022/08/31 14:15:16;;;;;;;0.43;0.30;;;;;;;;;;4990855;28;20355;-62
2022/08/31 14:17:51;;;;;;;1.65;0.50;;;;;;;;;;4989652;28;20487;-63
2022/08/31 14:20:32;;;;;;;0.70;0.35;;;;;;;;;;4990702;28;20432;-62
2022/08/31 14:23:18;;;;;;;0.50;0.40;;;;;;;;;;4991934;28;20460;-62
2022/08/31 14:25:43;;;;;;;2.83;0.40;;;;;;;;;;4990835;28;20410;-62
2022/08/31 14:28:09;;;;;;;0.98;0.60;;;;;;;;;;4990768;28;20325;-63
2022/08/31 14:30:35;;;;;;;0.60;0.50;;;;;;;;;;4992377;28;20351;-63
2022/08/31 14:33:00;;;;;;;1.20;0.68;;;;;;;;;;4990511;28;20431;-62
2022/08/31 14:35:26;;;;;;;2.92;0.55;;;;;;;;;;4990530;28;20339;-63
2022/08/31 14:37:51;;;;;;;1.02;0.90;;;;;;;;;;4990010;28;20106;-62
2022/08/31 14:40:17;;;;;;;2.13;0.70;;;;;;;;;;4990167;28;20352;-62
2022/08/31 14:42:43;;;;;;;1.10;0.50;;;;;;;;;;4990850;28;20384;-62
2022/08/31 14:45:17;;;;;;;2.38;0.40;;;;;;;;;;4990005;28;20475;-63
2022/08/31 14:47:43;;;;;;;1.13;0.63;;;;;;;;;;4990178;28;20401;-63
2022/08/31 14:50:15;;;;;;;0.50;0.35;;;;;;;;;;4989279;28;20454;-63
2022/08/31 14:52:48;;;;;;;2.63;0.65;;;;;;;;;;4990198;28;20021;-62
2022/08/31 14:55:14;;;;;;;1.52;0.55;;;;;;;;;;4990070;28;20486;-63
2022/08/31 14:57:42;;;;;;;4.97;0.60;;;;;;;;;;4991287;28;20400;-62
2022/08/31 15:00:09;;;;;;;3.65;0.80;;;;;;;;;;4990202;28;20505;-62
2022/08/31 15:02:34;;;;;;;0.60;0.52;;;;;;;;;;4990447;28;20343;-63
2022/08/31 15:05:03;;;;;;;1.40;0.55;;;;;;;;;;4990957;28;20024;-62
2022/08/31 15:07:30;;;;;;;0.60;0.40;;;;;;;;;;4990751;28;20348;-62
2022/08/31 15:09:57;;;;;;;1.00;0.60;;;;;;;;;;4990120;28;20025;-63
2022/08/31 15:12:22;;;;;;;2.42;0.60;;;;;;;;;;4988690;28;20456;-62
2022/08/31 15:14:48;;;;;;;1.67;0.80;;;;;;;;;;4989694;28;20469;-62
2022/08/31 15:17:14;;;;;;;0.98;0.40;;;;;;;;;;4990741;28;20579;-63
2022/08/31 15:19:39;;;;;;;1.90;0.70;;;;;;;;;;4989301;28;20021;-63
2022/08/31 15:22:08;;;;;;;1.20;0.40;;;;;;;;;;4989588;28;20119;-62
2022/08/31 15:24:34;;;;;;;;;;;;;;;;;;4989926;28;20356;-62